Time;durP1;ratioP1;P1;durP2;ratioP2;P2;SDS_P1;SDS_P2;PMS_P1;PMS_P2;Temp;Humidity;BMP_temperature;BMP_pressure;BME280_temperature;BME280_humidity;BME280_pressure;Samples;Min_cycle;Max_cycle;Signal;HPM_P1;HPM_P2
2021/04/24 00:00:24;;;;;;;;;;;8.60;63.60;;;;;;5053781;28;20095;-48
2021/04/24 00:02:52;;;;;;;13.45;6.70;;;8.60;63.30;;;;;;5052944;28;19928;-47
2021/04/24 00:05:25;;;;;;;15.52;7.82;;;8.60;63.00;;;;;;5052824;28;20076;-52
2021/04/24 00:07:58;;;;;;;11.98;6.22;;;8.40;63.70;;;;;;5052273;28;20077;-47
2021/04/24 00:10:26;;;;;;;10.00;5.38;;;8.30;64.20;;;;;;5052939;28;20049;-48
2021/04/24 00:12:54;;;;;;;10.20;5.88;;;8.30;64.00;;;;;;5052581;28;20053;-52
2021/04/24 00:15:22;;;;;;;10.25;4.97;;;8.50;63.70;;;;;;5052767;28;20053;-46
2021/04/24 00:17:50;;;;;;;14.63;6.38;;;8.60;62.90;;;;;;5052664;28;20118;-47
2021/04/24 00:20:22;;;;;;;14.75;6.95;;;8.50;62.90;;;;;;5052663;28;20052;-50
2021/04/24 00:22:50;;;;;;;10.70;5.95;;;8.40;63.20;;;;;;5052322;28;20041;-49
2021/04/24 00:25:18;;;;;;;14.07;7.03;;;8.40;63.10;;;;;;5051761;28;20056;-51
2021/04/24 00:27:45;;;;;;;12.52;6.82;;;8.30;63.30;;;;;;5052508;28;20053;-50
2021/04/24 00:30:14;;;;;;;;;;;8.30;63.90;;;;;;5053104;28;20522;-47
2021/04/24 00:32:41;;;;;;;10.52;5.85;;;8.20;63.80;;;;;;5052389;28;19921;-47
2021/04/24 00:35:18;;;;;;;12.55;6.38;;;8.20;63.60;;;;;;5050193;28;20068;-51
2021/04/24 00:37:46;;;;;;;11.30;5.72;;;8.20;63.30;;;;;;5052252;28;20051;-49
2021/04/24 00:40:14;;;;;;;12.32;6.35;;;8.20;63.20;;;;;;5052062;28;20107;-52
2021/04/24 00:42:41;;;;;;;16.23;7.43;;;8.20;63.60;;;;;;5052520;28;20045;-49
2021/04/24 00:45:11;;;;;;;10.15;6.13;;;8.10;63.60;;;;;;5052045;28;20576;-50
2021/04/24 00:47:38;;;;;;;15.85;7.20;;;7.90;64.30;;;;;;5052098;28;20147;-47
2021/04/24 00:50:07;;;;;;;13.13;5.70;;;8.00;64.30;;;;;;5052522;28;20044;-51
2021/04/24 00:52:34;;;;;;;9.95;5.38;;;7.90;64.40;;;;;;5051354;28;20075;-50
2021/04/24 00:55:01;;;;;;;10.77;5.50;;;7.90;64.50;;;;;;5052363;28;20043;-49
2021/04/24 00:57:30;;;;;;;10.88;6.18;;;8.00;64.80;;;;;;5051832;28;20049;-50
2021/04/24 00:59:57;;;;;;;9.98;5.00;;;8.00;64.10;;;;;;5052240;28;20044;-53
2021/04/24 01:02:23;;;;;;;;;;;8.00;64.30;;;;;;5052263;28;20049;-49
2021/04/24 01:04:50;;;;;;;11.90;5.47;;;8.00;64.20;;;;;;5047490;28;19921;-51
2021/04/24 01:07:16;;;;;;;;;;;8.00;64.60;;;;;;5046153;28;20079;-50
2021/04/24 01:09:43;;;;;;;15.40;6.70;;;7.80;65.00;;;;;;5051938;28;19929;-50
2021/04/24 01:12:10;;;;;;;;;;;7.80;65.20;;;;;;5052561;28;20052;-49
2021/04/24 01:14:37;;;;;;;10.90;5.72;;;7.90;65.20;;;;;;5051617;28;19952;-50
2021/04/24 01:17:03;;;;;;;;;;;7.90;64.70;;;;;;5052186;28;20044;-50
2021/04/24 01:19:30;;;;;;;11.20;5.95;;;7.90;64.80;;;;;;5051596;28;19924;-50
2021/04/24 01:22:09;;;;;;;10.38;5.68;;;7.90;65.10;;;;;;5052000;28;20067;-50
2021/04/24 01:24:37;;;;;;;13.10;7.22;;;7.80;65.50;;;;;;5051612;28;20053;-51
2021/04/24 01:27:05;;;;;;;11.60;5.32;;;7.80;65.50;;;;;;5051693;28;20502;-50
2021/04/24 01:29:34;;;;;;;9.98;4.90;;;7.70;65.90;;;;;;5051629;28;20064;-51
2021/04/24 01:32:02;;;;;;;11.30;5.50;;;7.60;66.10;;;;;;5052205;28;20041;-51
2021/04/24 01:34:31;;;;;;;11.45;5.47;;;7.60;66.40;;;;;;5051461;28;20069;-50
2021/04/24 01:37:00;;;;;;;11.18;6.25;;;7.60;66.50;;;;;;5051781;28;20037;-51
2021/04/24 01:39:29;;;;;;;12.52;6.68;;;7.50;66.60;;;;;;5051822;28;20056;-52
2021/04/24 01:41:56;;;;;;;14.35;6.03;;;7.50;66.80;;;;;;5051332;28;20048;-51
2021/04/24 01:44:23;;;;;;;11.93;5.78;;;7.60;66.60;;;;;;5051784;28;20087;-53
2021/04/24 01:46:50;;;;;;;11.88;7.35;;;7.70;66.10;;;;;;5051437;28;20068;-51
2021/04/24 01:49:17;;;;;;;13.20;7.25;;;7.60;66.20;;;;;;5050901;28;20057;-50
2021/04/24 01:51:46;;;;;;;9.55;5.03;;;7.50;66.70;;;;;;5052011;28;20044;-49
2021/04/24 01:54:13;;;;;;;13.80;6.03;;;7.50;66.80;;;;;;5051395;28;20060;-48
2021/04/24 01:56:55;;;;;;;12.43;6.00;;;7.50;66.80;;;;;;5051709;28;20045;-49
2021/04/24 01:59:25;;;;;;;13.35;6.78;;;7.50;66.70;;;;;;5039319;28;20084;-46
2021/04/24 02:01:55;;;;;;;10.38;6.00;;;7.40;67.00;;;;;;5051633;28;20052;-47
2021/04/24 02:04:24;;;;;;;14.77;7.20;;;7.50;66.80;;;;;;5050816;28;20400;-52
2021/04/24 02:06:51;;;;;;;10.48;6.30;;;7.60;66.80;;;;;;5051376;28;20080;-53
2021/04/24 02:09:20;;;;;;;13.80;7.10;;;7.50;66.90;;;;;;5051648;28;20438;-50
2021/04/24 02:12:02;;;;;;;11.48;5.30;;;7.50;67.20;;;;;;5055129;28;20075;-48
2021/04/24 02:14:28;;;;;;;13.45;8.02;;;7.40;67.20;;;;;;5054060;28;20540;-52
2021/04/24 02:16:55;;;;;;;12.18;6.32;;;7.30;67.80;;;;;;5055266;28;20051;-52
2021/04/24 02:19:22;;;;;;;12.93;7.40;;;7.30;67.80;;;;;;5054522;28;20049;-52
2021/04/24 02:21:49;;;;;;;12.38;7.15;;;7.30;67.80;;;;;;5055080;28;20049;-50
2021/04/24 02:24:16;;;;;;;;;;;7.30;67.70;;;;;;5055540;28;20045;-48
2021/04/24 02:26:42;;;;;;;15.82;7.72;;;7.30;67.70;;;;;;5055083;28;19928;-54
2021/04/24 02:29:09;;;;;;;16.88;6.43;;;7.20;68.40;;;;;;5054843;28;20158;-51
2021/04/24 02:31:36;;;;;;;;;;;7.10;68.70;;;;;;5055593;28;20049;-54
2021/04/24 02:34:03;;;;;;;13.07;7.63;;;7.10;68.60;;;;;;5054535;28;19927;-51
2021/04/24 02:36:30;;;;;;;13.70;7.80;;;7.10;68.70;;;;;;5054629;28;20119;-54
2021/04/24 02:38:57;;;;;;;15.75;8.50;;;6.90;69.30;;;;;;5054736;28;20049;-54
2021/04/24 02:41:24;;;;;;;;;;;7.00;69.50;;;;;;5053576;28;20059;-52
2021/04/24 02:43:51;;;;;;;13.80;7.18;;;7.00;69.50;;;;;;5054776;28;19931;-50
2021/04/24 02:46:18;;;;;;;14.38;7.32;;;7.00;69.30;;;;;;5054690;28;20110;-51
2021/04/24 02:48:44;;;;;;;;;;;7.10;69.10;;;;;;5054322;28;20419;-50
2021/04/24 02:51:11;;;;;;;13.88;6.22;;;7.00;69.10;;;;;;5054448;28;19924;-52
2021/04/24 02:53:38;;;;;;;;;;;7.10;69.00;;;;;;5050399;28;20541;-50
2021/04/24 02:56:04;;;;;;;16.25;7.32;;;7.10;68.90;;;;;;5055769;28;19924;-52
2021/04/24 02:58:31;;;;;;;;;;;7.10;68.80;;;;;;5058595;28;20044;-50
2021/04/24 03:00:58;;;;;;;12.80;6.40;;;7.20;68.60;;;;;;5074339;28;19990;-51
2021/04/24 03:03:24;;;;;;;;;;;7.10;68.70;;;;;;5074334;28;20036;-47
2021/04/24 03:05:54;;;;;;;15.07;8.60;;;7.00;69.10;;;;;;5074349;28;20366;-51
2021/04/24 03:08:21;;;;;;;15.82;7.35;;;7.00;69.50;;;;;;5073952;28;20140;-50
2021/04/24 03:10:48;;;;;;;13.63;6.10;;;6.90;70.00;;;;;;5072906;28;20058;-50
2021/04/24 03:13:15;;;;;;;12.02;5.35;;;6.90;70.10;;;;;;5074223;28;20406;-50
2021/04/24 03:15:41;;;;;;;19.02;7.32;;;7.00;70.30;;;;;;5046192;28;20053;-50
2021/04/24 03:18:09;;;;;;;10.90;5.40;;;7.10;69.40;;;;;;5073716;28;20045;-52
2021/04/24 03:20:35;;;;;;;15.80;7.15;;;7.10;69.20;;;;;;5073350;28;20494;-51
2021/04/24 03:23:04;;;;;;;11.38;6.28;;;7.00;69.50;;;;;;5073703;28;20462;-50
2021/04/24 03:25:31;;;;;;;14.68;8.32;;;6.90;69.90;;;;;;5073772;28;20048;-51
2021/04/24 03:27:58;;;;;;;15.57;6.82;;;7.00;69.70;;;;;;5074063;28;20403;-46
2021/04/24 03:30:25;;;;;;;14.48;6.32;;;7.00;69.70;;;;;;5073507;28;20474;-49
2021/04/24 03:32:52;;;;;;;11.43;6.00;;;7.00;69.90;;;;;;5073469;28;20392;-50
2021/04/24 03:35:19;;;;;;;13.75;7.28;;;7.00;69.90;;;;;;5073736;28;20041;-53
2021/04/24 03:37:45;;;;;;;16.25;8.20;;;7.00;69.90;;;;;;5073358;28;20456;-50
2021/04/24 03:40:13;;;;;;;11.50;7.07;;;6.90;70.30;;;;;;5073735;28;20052;-53
2021/04/24 03:42:40;;;;;;;13.27;6.20;;;6.90;70.50;;;;;;5063428;28;20504;-50
2021/04/24 03:45:17;;;;;;;12.25;6.35;;;6.90;70.30;;;;;;5052912;28;20136;-53
2021/04/24 03:47:54;;;;;;;11.57;5.40;;;6.90;70.40;;;;;;5053560;28;20507;-52
2021/04/24 03:50:23;;;;;;;14.63;6.65;;;6.90;70.60;;;;;;5053136;28;20045;-50
2021/04/24 03:52:51;;;;;;;14.98;7.05;;;6.90;70.30;;;;;;5053602;28;20052;-52
2021/04/24 03:55:19;;;;;;;15.38;6.40;;;6.80;70.70;;;;;;5053218;28;20048;-49
2021/04/24 03:57:47;;;;;;;14.15;7.47;;;6.90;70.50;;;;;;5052064;28;20419;-50
2021/04/24 04:00:18;;;;;;;12.13;6.28;;;6.90;70.50;;;;;;5052645;28;20052;-50
2021/04/24 04:02:52;;;;;;;13.93;7.38;;;6.90;70.50;;;;;;5053201;28;20052;-49
2021/04/24 04:05:19;;;;;;;12.73;6.38;;;6.80;70.50;;;;;;5052988;28;20159;-51
2021/04/24 04:07:47;;;;;;;18.15;6.97;;;6.90;70.60;;;;;;5053458;28;20048;-50
2021/04/24 04:10:14;;;;;;;;;;;6.90;70.40;;;;;;5051839;28;20431;-53
2021/04/24 04:12:42;;;;;;;13.20;7.25;;;6.90;70.40;;;;;;5052647;28;19966;-51
2021/04/24 04:15:10;;;;;;;13.75;5.78;;;6.90;70.60;;;;;;5052513;28;20048;-51
2021/04/24 04:17:38;;;;;;;15.90;8.23;;;6.80;70.70;;;;;;5052643;28;20072;-50
2021/04/24 04:20:10;;;;;;;15.38;6.93;;;6.90;70.80;;;;;;5053066;28;20132;-50
2021/04/24 04:22:42;;;;;;;17.80;8.77;;;6.90;70.60;;;;;;5052574;28;20071;-48
2021/04/24 04:25:09;;;;;;;;;;;6.80;71.00;;;;;;5053076;28;20094;-51
2021/04/24 04:27:36;;;;;;;16.90;8.35;;;6.60;72.00;;;;;;5052570;28;19927;-50
2021/04/24 04:30:06;;;;;;;16.45;8.80;;;6.60;71.70;;;;;;5052523;28;20561;-48
2021/04/24 04:32:33;;;;;;;15.95;7.80;;;6.50;72.00;;;;;;5051898;28;20492;-50
2021/04/24 04:35:00;;;;;;;17.15;9.20;;;6.50;72.20;;;;;;5051174;28;20045;-50
2021/04/24 04:37:27;;;;;;;14.77;9.02;;;6.50;72.20;;;;;;5052863;28;20049;-51
2021/04/24 04:39:54;;;;;;;19.40;9.90;;;6.50;72.20;;;;;;5052273;28;20556;-49
2021/04/24 04:42:20;;;;;;;;;;;6.40;72.40;;;;;;5052856;28;20526;-50
2021/04/24 04:44:47;;;;;;;20.95;9.40;;;6.40;72.50;;;;;;5051915;28;19920;-50
2021/04/24 04:47:14;;;;;;;15.93;8.98;;;6.40;72.40;;;;;;5052166;28;20403;-50
2021/04/24 04:49:41;;;;;;;17.88;8.73;;;6.50;72.30;;;;;;5052187;28;20542;-50
2021/04/24 04:52:08;;;;;;;;;;;6.60;71.90;;;;;;5052519;28;20411;-48
2021/04/24 04:54:34;;;;;;;22.20;10.18;;;6.60;71.60;;;;;;5052457;28;20347;-49
2021/04/24 04:57:01;;;;;;;18.23;10.68;;;6.60;72.10;;;;;;5051748;28;20049;-50
2021/04/24 04:59:28;;;;;;;17.63;9.73;;;6.40;72.50;;;;;;5051895;28;20053;-49
2021/04/24 05:01:56;;;;;;;15.25;7.68;;;6.50;72.40;;;;;;5051735;28;20454;-50
2021/04/24 05:04:33;;;;;;;18.75;8.57;;;6.60;72.20;;;;;;5051953;28;20111;-52
2021/04/24 05:07:03;;;;;;;17.40;9.93;;;6.70;71.70;;;;;;5051705;28;20114;-50
2021/04/24 05:09:29;;;;;;;16.60;9.13;;;6.60;72.10;;;;;;5052220;28;20041;-50
2021/04/24 05:11:56;;;;;;;15.57;9.48;;;6.50;72.50;;;;;;5051320;28;20049;-50
2021/04/24 05:14:23;;;;;;;18.48;9.50;;;6.50;72.90;;;;;;5052015;28;20053;-50
2021/04/24 05:16:50;;;;;;;15.40;9.23;;;6.50;73.00;;;;;;5052254;28;20483;-51
2021/04/24 05:19:17;;;;;;;16.17;10.05;;;6.40;73.20;;;;;;5051712;28;20501;-51
2021/04/24 05:21:44;;;;;;;;;;;6.40;73.20;;;;;;5052570;28;20060;-51
2021/04/24 05:24:11;;;;;;;19.33;9.20;;;6.50;73.00;;;;;;5051702;28;19990;-50
2021/04/24 05:26:37;;;;;;;21.08;10.43;;;6.50;73.00;;;;;;5057577;28;20040;-51
2021/04/24 05:29:04;;;;;;;;;;;6.50;73.20;;;;;;5068098;28;20064;-49
2021/04/24 05:31:31;;;;;;;17.42;8.80;;;6.40;73.70;;;;;;5051730;28;19927;-49
2021/04/24 05:33:58;;;;;;;18.80;9.32;;;6.50;73.70;;;;;;5051388;28;20037;-49
2021/04/24 05:36:25;;;;;;;;;;;6.50;73.60;;;;;;5050893;28;20057;-51
2021/04/24 05:38:53;;;;;;;14.90;8.50;;;6.50;73.60;;;;;;5051630;28;19920;-50
2021/04/24 05:41:22;;;;;;;15.48;9.15;;;6.60;73.60;;;;;;5050794;28;20822;-50
2021/04/24 05:43:50;;;;;;;18.20;9.50;;;6.60;73.50;;;;;;5053148;28;20055;-50
2021/04/24 05:46:18;;;;;;;19.10;10.38;;;6.60;73.60;;;;;;5055771;28;20049;-49
2021/04/24 05:48:46;;;;;;;22.73;10.55;;;6.60;74.20;;;;;;5055266;28;20514;-51
2021/04/24 05:51:13;;;;;;;16.45;9.27;;;6.60;74.30;;;;;;5055640;28;20048;-49
2021/04/24 05:53:41;;;;;;;19.70;9.23;;;6.50;74.80;;;;;;5055298;28;20136;-47
2021/04/24 05:56:08;;;;;;;14.43;8.00;;;6.60;74.60;;;;;;5055267;28;20072;-48
2021/04/24 05:58:34;;;;;;;12.02;5.65;;;6.60;74.50;;;;;;5054974;28;20064;-48
2021/04/24 06:01:01;;;;;;;;;;;6.70;75.00;;;;;;5055999;28;20507;-47
2021/04/24 06:03:28;;;;;;;17.25;9.32;;;6.80;74.00;;;;;;5055624;28;19924;-47
2021/04/24 06:05:56;;;;;;;14.85;7.20;;;6.90;74.10;;;;;;5055057;28;20043;-47
2021/04/24 06:08:22;;;;;;;;;;;6.90;74.30;;;;;;5055767;28;20436;-46
2021/04/24 06:10:49;;;;;;;13.88;7.72;;;6.90;73.90;;;;;;5054557;28;19972;-46
2021/04/24 06:13:16;;;;;;;;;;;6.90;74.60;;;;;;5055375;28;20080;-46
2021/04/24 06:15:42;;;;;;;20.10;9.30;;;6.90;73.90;;;;;;5054976;28;19975;-51
2021/04/24 06:18:09;;;;;;;;;;;6.90;74.20;;;;;;5055277;28;20052;-46
2021/04/24 06:20:37;;;;;;;21.02;10.02;;;7.00;74.20;;;;;;5055029;28;19960;-46
2021/04/24 06:23:05;;;;;;;22.83;10.93;;;6.90;74.60;;;;;;5054773;28;20049;-46
2021/04/24 06:25:31;;;;;;;22.48;10.93;;;6.90;74.70;;;;;;5054752;28;20041;-46
2021/04/24 06:27:58;;;;;;;;;;;6.90;74.70;;;;;;5054794;28;20421;-45
2021/04/24 06:30:25;;;;;;;15.48;9.40;;;7.00;74.50;;;;;;5054745;28;19956;-46
2021/04/24 06:32:53;;;;;;;27.15;12.02;;;7.10;74.30;;;;;;5054882;28;20083;-46
2021/04/24 06:35:21;;;;;;;22.30;11.20;;;7.00;74.80;;;;;;5054290;28;20062;-47
2021/04/24 06:37:48;;;;;;;14.43;6.78;;;7.00;74.70;;;;;;5054880;28;20101;-46
2021/04/24 06:40:17;;;;;;;18.33;9.07;;;6.90;75.40;;;;;;5054058;28;20056;-46
2021/04/24 06:42:44;;;;;;;17.60;8.02;;;7.00;75.00;;;;;;5054774;28;20452;-48
2021/04/24 06:45:12;;;;;;;18.38;8.82;;;7.00;74.50;;;;;;5054452;28;20077;-45
2021/04/24 06:47:39;;;;;;;17.63;9.88;;;7.10;74.70;;;;;;5054392;28;20045;-46
2021/04/24 06:50:06;;;;;;;;;;;7.20;74.40;;;;;;5054712;28;20053;-46
2021/04/24 06:52:33;;;;;;;15.77;10.07;;;7.20;74.30;;;;;;5054740;28;19932;-48
2021/04/24 06:55:00;;;;;;;13.95;8.07;;;7.20;74.40;;;;;;5053005;28;20497;-47
2021/04/24 06:57:27;;;;;;;15.38;9.52;;;7.20;74.20;;;;;;5054228;28;20562;-48
2021/04/24 06:59:54;;;;;;;16.73;5.95;;;7.20;74.30;;;;;;5054460;28;20495;-49
2021/04/24 07:02:20;;;;;;;15.68;8.13;;;7.30;74.00;;;;;;5054416;28;20071;-45
2021/04/24 07:04:47;;;;;;;;;;;7.40;73.70;;;;;;5054526;28;20048;-47
2021/04/24 07:07:13;;;;;;;18.25;7.43;;;7.30;73.90;;;;;;5053798;28;19925;-46
2021/04/24 07:09:40;;;;;;;;;;;7.40;73.80;;;;;;5054135;28;20107;-46
2021/04/24 07:12:07;;;;;;;12.25;6.80;;;7.40;74.10;;;;;;5053743;28;19947;-50
2021/04/24 07:14:34;;;;;;;18.67;8.75;;;7.40;73.90;;;;;;5053757;28;20052;-50
2021/04/24 07:17:01;;;;;;;;;;;7.40;74.40;;;;;;5054663;28;20073;-48
2021/04/24 07:19:27;;;;;;;14.27;7.82;;;7.40;74.20;;;;;;5052662;28;20374;-47
2021/04/24 07:21:54;;;;;;;17.77;8.60;;;7.50;73.40;;;;;;5053948;28;20063;-47
2021/04/24 07:24:21;;;;;;;16.27;7.07;;;7.50;73.50;;;;;;5051917;28;20065;-51
2021/04/24 07:26:47;;;;;;;;;;;7.50;73.50;;;;;;5029821;28;97518;-51
2021/04/24 07:29:17;;;;;;;17.48;8.23;;;7.60;73.20;;;;;;5053073;28;19927;-47
2021/04/24 07:31:44;;;;;;;;;;;7.70;73.50;;;;;;5016124;28;20056;-47
2021/04/24 07:34:11;;;;;;;15.30;5.55;;;7.70;73.50;;;;;;5006902;28;89350;-48
2021/04/24 07:36:39;;;;;;;15.43;7.38;;;7.80;72.50;;;;;;5053257;28;20079;-47
2021/04/24 07:39:06;;;;;;;15.30;5.30;;;7.80;72.30;;;;;;5052860;28;20045;-46
2021/04/24 07:41:33;;;;;;;12.95;6.70;;;7.90;72.20;;;;;;5052989;28;20072;-46
2021/04/24 07:44:00;;;;;;;23.15;6.72;;;7.90;71.50;;;;;;5053632;28;20059;-47
2021/04/24 07:46:27;;;;;;;13.40;5.80;;;8.00;70.40;;;;;;5053435;28;20118;-48
2021/04/24 07:48:54;;;;;;;14.07;5.40;;;8.00;69.00;;;;;;5052906;28;20115;-47
2021/04/24 07:51:20;;;;;;;;;;;8.00;67.70;;;;;;5053297;28;20090;-46
2021/04/24 07:53:47;;;;;;;12.77;5.05;;;8.00;66.00;;;;;;5052874;28;19924;-46
2021/04/24 07:56:14;;;;;;;13.18;5.70;;;8.10;65.60;;;;;;5052565;28;20048;-48
2021/04/24 07:58:41;;;;;;;;;;;8.10;66.20;;;;;;5060267;28;20044;-46
2021/04/24 08:01:07;;;;;;;12.10;5.90;;;8.00;66.20;;;;;;5052581;28;19920;-46
2021/04/24 08:03:34;;;;;;;9.70;5.07;;;8.10;67.20;;;;;;5045353;28;20076;-46
2021/04/24 08:06:01;;;;;;;;;;;8.10;65.70;;;;;;5052669;28;20573;-46
2021/04/24 08:08:27;;;;;;;13.30;5.30;;;8.20;65.00;;;;;;5052641;28;19924;-54
2021/04/24 08:10:54;;;;;;;11.93;5.88;;;8.30;63.60;;;;;;5052390;28;20045;-49
2021/04/24 08:13:21;;;;;;;;;;;8.30;63.50;;;;;;5052898;28;20052;-51
2021/04/24 08:15:49;;;;;;;10.30;5.43;;;8.20;62.70;;;;;;5052878;28;19978;-51
2021/04/24 08:18:15;;;;;;;11.27;5.20;;;8.30;63.40;;;;;;5052451;28;20048;-49
2021/04/24 08:20:42;;;;;;;;;;;8.30;62.20;;;;;;5052308;28;20071;-46
2021/04/24 08:23:09;;;;;;;9.68;4.93;;;8.30;61.90;;;;;;5052106;28;19960;-48
2021/04/24 08:25:35;;;;;;;8.95;4.70;;;8.40;61.10;;;;;;5051751;28;20092;-50
2021/04/24 08:28:02;;;;;;;10.00;4.50;;;8.50;60.10;;;;;;5052561;28;20072;-46
2021/04/24 08:30:30;;;;;;;;;;;8.50;60.20;;;;;;5052900;28;20041;-48
2021/04/24 08:32:57;;;;;;;13.68;4.20;;;8.60;60.20;;;;;;5052057;28;19925;-47
2021/04/24 08:35:24;;;;;;;11.85;4.47;;;8.60;59.60;;;;;;5051748;28;20033;-47
2021/04/24 08:37:51;;;;;;;14.25;4.65;;;8.60;59.50;;;;;;5052031;28;20056;-48
2021/04/24 08:40:17;;;;;;;;;;;8.70;60.60;;;;;;5052292;28;20069;-56
2021/04/24 08:42:47;;;;;;;8.40;3.67;;;8.70;59.10;;;;;;5047481;28;19932;-51
2021/04/24 08:45:15;;;;;;;12.02;4.43;;;8.80;59.00;;;;;;5049158;28;20045;-50
2021/04/24 08:47:49;;;;;;;14.63;4.72;;;8.90;61.80;;;;;;5052136;28;20178;-45
2021/04/24 08:50:32;;;;;;;12.43;5.43;;;8.90;60.00;;;;;;5051262;28;20093;-47
2021/04/24 08:53:00;;;;;;;11.43;4.85;;;9.00;61.00;;;;;;5051527;28;20052;-46
2021/04/24 08:55:38;;;;;;;9.05;4.28;;;9.00;59.70;;;;;;5051357;28;20091;-49
2021/04/24 08:58:06;;;;;;;13.00;6.22;;;9.00;59.80;;;;;;5052141;28;20065;-48
2021/04/24 09:00:39;;;;;;;10.13;4.43;;;9.00;59.40;;;;;;5051920;28;20043;-48
2021/04/24 09:03:07;;;;;;;11.82;5.13;;;9.00;60.00;;;;;;5051470;28;20422;-51
2021/04/24 09:05:35;;;;;;;11.55;5.43;;;9.00;59.40;;;;;;5050784;28;20099;-48
2021/04/24 09:08:05;;;;;;;7.22;3.25;;;9.00;60.00;;;;;;5051707;28;20041;-48
2021/04/24 09:10:42;;;;;;;11.95;5.70;;;9.10;60.10;;;;;;5051403;28;20067;-54
2021/04/24 09:49:48;;;;;;;23.77;5.60;;;9.70;54.50;;;;;;5061810;27;20374;-59
2021/04/24 09:52:21;;;;;;;13.93;5.77;;;9.70;60.00;;;;;;5028976;28;20499;-50
2021/04/24 09:54:48;;;;;;;12.23;4.70;;;9.70;56.10;;;;;;5026388;28;20292;-48
2021/04/24 09:57:21;;;;;;;15.48;5.18;;;9.80;55.20;;;;;;5017330;28;20173;-48
2021/04/24 10:00:02;;;;;;;14.15;5.03;;;9.80;55.10;;;;;;5015567;28;20566;-53
2021/04/24 10:02:41;;;;;;;17.65;5.10;;;9.80;53.50;;;;;;5015186;28;20061;-50
2021/04/24 10:05:19;;;;;;;15.00;5.05;;;9.80;53.70;;;;;;5019820;28;20151;-50
2021/04/24 10:07:54;;;;;;;15.38;5.30;;;9.80;52.80;;;;;;5020526;28;20042;-50
2021/04/24 10:10:29;;;;;;;12.02;5.55;;;9.80;53.30;;;;;;5028581;28;20569;-50
2021/04/24 10:13:00;;;;;;;16.13;5.35;;;9.90;53.50;;;;;;5021003;28;20104;-50
2021/04/24 10:15:35;;;;;;;6.13;3.38;;;9.90;54.60;;;;;;5014948;28;20046;-50
2021/04/24 10:18:03;;;;;;;7.97;3.97;;;10.00;49.40;;;;;;5020565;28;20092;-51
2021/04/24 10:20:31;;;;;;;12.20;4.30;;;9.90;48.60;;;;;;5023928;28;20093;-50
2021/04/24 10:23:00;;;;;;;9.98;3.72;;;10.00;49.90;;;;;;5027929;28;20776;-50
2021/04/24 10:25:28;;;;;;;7.82;3.80;;;10.00;51.00;;;;;;5028474;28;20119;-51
2021/04/24 10:27:55;;;;;;;7.85;3.80;;;10.00;51.00;;;;;;5028345;28;20038;-48
2021/04/24 10:30:22;;;;;;;9.85;4.20;;;10.10;48.60;;;;;;5001004;28;20054;-47
2021/04/24 10:32:52;;;;;;;8.02;4.05;;;10.20;49.60;;;;;;5028077;28;20120;-46
2021/04/24 10:35:19;;;;;;;8.18;4.00;;;10.20;48.40;;;;;;5028069;28;20073;-46
2021/04/24 10:37:47;;;;;;;8.93;4.05;;;10.30;49.00;;;;;;5027894;28;20061;-45
2021/04/24 10:40:15;;;;;;;7.65;3.70;;;10.40;48.90;;;;;;5028366;28;20084;-48
2021/04/24 10:42:51;;;;;;;7.47;3.97;;;10.50;48.60;;;;;;5028021;28;20092;-47
2021/04/24 10:45:28;;;;;;;7.22;3.53;;;10.50;47.80;;;;;;5010281;28;20050;-47
2021/04/24 10:47:55;;;;;;;7.20;3.42;;;10.50;46.00;;;;;;5008145;28;20058;-47
2021/04/24 10:50:46;;;;;;;9.98;3.20;;;10.50;47.10;;;;;;5022437;28;20051;-44
2021/04/24 10:53:29;;;;;;;5.60;2.67;;;10.70;45.80;;;;;;5067284;28;20045;-45
2021/04/24 10:55:58;;;;;;;5.40;2.67;;;10.90;46.70;;;;;;5063439;28;20061;-43
2021/04/24 10:58:28;;;;;;;3.95;2.58;;;10.90;44.40;;;;;;5067397;28;20041;-41
2021/04/24 11:01:03;;;;;;;5.20;3.13;;;11.00;46.90;;;;;;5048301;28;20053;-43
2021/04/24 11:03:35;;;;;;;7.55;3.28;;;11.00;46.80;;;;;;5054094;28;20045;-43
2021/04/24 11:06:12;;;;;;;7.70;4.03;;;11.10;47.90;;;;;;5046921;28;20056;-47
2021/04/24 11:08:39;;;;;;;;;;;11.20;46.10;;;;;;5024566;28;77141;-48
2021/04/24 11:11:07;;;;;;;13.60;4.30;;;11.20;45.90;;;;;;5019269;28;19934;-48
2021/04/24 11:14:33;;;;;;;8.50;4.82;;;11.20;45.40;;;;;;4944635;27;20417;-49
2021/04/24 11:17:02;;;;;;;10.43;4.55;;;11.10;44.50;;;;;;5011797;28;20049;-45
2021/04/24 11:19:46;;;;;;;12.23;5.25;;;11.10;45.20;;;;;;4691022;28;85365;-49
2021/04/24 11:22:35;;;;;;;10.55;4.25;;;11.20;45.70;;;;;;4817114;28;20100;-48
2021/04/24 11:25:17;;;;;;;7.30;3.20;;;11.20;45.70;;;;;;5011884;28;20581;-48
2021/04/24 11:27:59;;;;;;;11.20;5.30;;;;;;;;;;5050855;28;20045;-53
2021/04/24 11:30:48;;;;;;;9.68;4.53;;;11.20;45.90;;;;;;5051479;28;20041;-56
2021/04/24 11:33:31;;;;;;;9.55;5.30;;;11.30;46.40;;;;;;5044602;28;20049;-56
2021/04/24 11:36:25;;;;;;;9.40;5.30;;;11.30;46.00;;;;;;5048676;28;20510;-50
2021/04/24 11:39:01;;;;;;;10.50;5.30;;;11.30;45.70;;;;;;5048760;28;20045;-52
2021/04/24 11:41:31;;;;;;;10.07;4.67;;;11.30;47.10;;;;;;5048225;28;20464;-51
2021/04/24 11:43:59;;;;;;;9.98;4.57;;;11.40;45.20;;;;;;5048118;28;20045;-50
2021/04/24 11:46:39;;;;;;;9.27;4.25;;;11.50;45.60;;;;;;5048565;28;20081;-51
2021/04/24 11:49:09;;;;;;;10.23;4.60;;;11.50;45.70;;;;;;5035361;28;20052;-49
2021/04/24 11:51:54;;;;;;;8.65;3.80;;;11.50;44.70;;;;;;5048520;28;20487;-50
2021/04/24 11:54:25;;;;;;;8.00;4.13;;;11.60;45.00;;;;;;5048100;28;20087;-52
2021/04/24 11:57:03;;;;;;;10.68;5.25;;;11.60;44.60;;;;;;5048138;28;20064;-49
2021/04/24 11:59:36;;;;;;;10.80;4.75;;;11.70;44.30;;;;;;5047815;28;20171;-49
2021/04/24 12:02:14;;;;;;;8.85;4.72;;;11.70;43.50;;;;;;5048169;28;20053;-51
2021/04/24 12:04:42;;;;;;;6.18;2.83;;;11.70;44.40;;;;;;5048179;28;20111;-50
2021/04/24 12:07:11;;;;;;;6.22;3.92;;;11.90;45.80;;;;;;5015870;28;20074;-49
2021/04/24 12:09:46;;;;;;;6.65;3.97;;;11.90;45.00;;;;;;4993986;28;20136;-49
2021/04/24 12:12:15;;;;;;;16.77;4.68;;;11.90;44.90;;;;;;5018962;28;20044;-47
2021/04/24 12:14:42;;;;;;;7.03;4.07;;;11.80;44.50;;;;;;5024125;28;20393;-49
2021/04/24 12:17:14;;;;;;;10.40;4.32;;;11.80;45.50;;;;;;5021093;28;20058;-49
2021/04/24 12:19:43;;;;;;;9.60;5.38;;;11.90;46.10;;;;;;5005326;28;20037;-50
2021/04/24 12:22:20;;;;;;;8.00;4.45;;;12.00;44.70;;;;;;5021580;28;20100;-50
2021/04/24 12:24:57;;;;;;;9.45;4.85;;;12.10;40.80;;;;;;4991263;28;20050;-49
2021/04/24 12:27:44;;;;;;;7.45;4.10;;;12.10;40.50;;;;;;5005103;28;20088;-52
2021/04/24 12:30:11;;;;;;;7.90;3.78;;;12.10;41.40;;;;;;5011420;28;20461;-48
2021/04/24 12:32:41;;;;;;;6.38;3.72;;;12.20;41.20;;;;;;5007371;28;20046;-49
2021/04/24 12:35:11;;;;;;;6.18;3.70;;;12.20;41.40;;;;;;5010840;28;20046;-49
2021/04/24 12:37:39;;;;;;;7.75;4.10;;;12.20;40.90;;;;;;5007340;28;20116;-50
2021/04/24 12:40:10;;;;;;;6.63;3.78;;;12.20;40.80;;;;;;5010955;28;20093;-51
2021/04/24 12:42:37;;;;;;;10.82;4.85;;;12.20;41.60;;;;;;5010052;28;20081;-47
2021/04/24 12:45:07;;;;;;;7.43;3.47;;;12.20;41.20;;;;;;4995951;28;20054;-49
2021/04/24 12:47:35;;;;;;;8.98;4.80;;;12.10;41.90;;;;;;5003209;28;20519;-49
2021/04/24 12:50:07;;;;;;;7.85;4.03;;;12.20;41.80;;;;;;5013704;28;20053;-49
2021/04/24 12:52:42;;;;;;;6.65;3.80;;;12.30;40.20;;;;;;5014183;28;20042;-49
2021/04/24 12:55:09;;;;;;;8.73;4.55;;;12.30;40.10;;;;;;5005086;28;20070;-50
2021/04/24 12:57:36;;;;;;;8.52;3.45;;;12.30;41.60;;;;;;5013826;28;20042;-51
2021/04/24 13:00:08;;;;;;;9.52;4.28;;;12.40;41.60;;;;;;5014254;28;20046;-48
2021/04/24 13:02:36;;;;;;;7.00;3.55;;;12.40;41.50;;;;;;5013774;28;20045;-48
2021/04/24 13:05:09;;;;;;;4.95;3.00;;;12.50;41.60;;;;;;5013727;28;20469;-46
2021/04/24 13:07:36;;;;;;;9.57;4.47;;;12.60;42.50;;;;;;5013688;28;20194;-46
2021/04/24 13:10:17;;;;;;;11.55;5.57;;;12.70;41.40;;;;;;5013842;28;20501;-48
2021/04/24 13:12:52;;;;;;;9.60;5.20;;;12.70;40.20;;;;;;5013055;28;20060;-48
2021/04/24 13:15:19;;;;;;;9.73;3.95;;;12.60;41.20;;;;;;5012287;28;20058;-48
2021/04/24 13:17:46;;;;;;;10.43;4.97;;;12.80;42.50;;;;;;5013733;28;20050;-48
2021/04/24 13:20:28;;;;;;;9.10;4.68;;;12.90;40.40;;;;;;5013898;28;20049;-47
2021/04/24 13:22:56;;;;;;;12.07;6.15;;;12.90;39.50;;;;;;5013468;28;20049;-48
2021/04/24 13:25:34;;;;;;;11.80;6.32;;;12.80;41.00;;;;;;5001544;28;20043;-48
2021/04/24 13:28:02;;;;;;;12.70;5.47;;;12.70;42.10;;;;;;5012730;28;20136;-49
2021/04/24 13:30:30;;;;;;;11.95;5.18;;;12.80;42.30;;;;;;5013494;28;20037;-49
2021/04/24 13:33:02;;;;;;;7.15;4.07;;;12.80;41.30;;;;;;5013281;28;20087;-47
2021/04/24 13:35:48;;;;;;;11.63;5.45;;;12.80;41.30;;;;;;5012985;28;20184;-48
2021/04/24 13:38:17;;;;;;;12.33;5.77;;;12.90;42.20;;;;;;5012089;28;20049;-49
2021/04/24 13:40:45;;;;;;;7.95;4.20;;;12.90;42.20;;;;;;5013072;28;20057;-47
2021/04/24 13:43:29;;;;;;;11.38;6.10;;;13.00;42.60;;;;;;5012123;28;20049;-47
2021/04/24 13:45:56;;;;;;;14.38;5.65;;;13.00;42.70;;;;;;4993947;28;20080;-48